sensor_id;sensor_type;location;lat;lon;timestamp;pressure;altitude;pressure_sealevel;temperature;humidity
57114;BME280;42994;51.606;9.988;2024-03-22T00:02:09;99758.25;;;6.57;100.00
57114;BME280;42994;51.606;9.988;2024-03-22T00:04:36;99751.09;;;6.58;100.00
57114;BME280;42994;51.606;9.988;2024-03-22T00:07:01;99750.06;;;6.59;100.00
57114;BME280;42994;51.606;9.988;2024-03-22T00:09:29;99750.94;;;6.59;100.00
57114;BME280;42994;51.606;9.988;2024-03-22T00:11:55;99750.94;;;6.59;100.00
57114;BME280;42994;51.606;9.988;2024-03-22T00:14:22;99755.25;;;6.60;100.00
57114;BME280;42994;51.606;9.988;2024-03-22T00:16:48;99750.94;;;6.59;100.00
57114;BME280;42994;51.606;9.988;2024-03-22T00:19:16;99749.09;;;6.60;100.00
57114;BME280;42994;51.606;9.988;2024-03-22T00:21:42;99747.38;;;6.68;100.00
57114;BME280;42994;51.606;9.988;2024-03-22T00:24:09;99742.06;;;6.68;100.00
57114;BME280;42994;51.606;9.988;2024-03-22T00:26:35;99734.34;;;6.65;100.00
57114;BME280;42994;51.606;9.988;2024-03-22T00:29:02;99731.69;;;6.65;100.00
57114;BME280;42994;51.606;9.988;2024-03-22T00:31:27;99735.44;;;6.72;100.00
57114;BME280;42994;51.606;9.988;2024-03-22T00:33:54;99730.94;;;6.73;100.00
57114;BME280;42994;51.606;9.988;2024-03-22T00:36:21;99721.03;;;6.65;100.00
57114;BME280;42994;51.606;9.988;2024-03-22T00:38:48;99723.00;;;6.63;100.00
57114;BME280;42994;51.606;9.988;2024-03-22T00:41:14;99720.75;;;6.68;100.00
57114;BME280;42994;51.606;9.988;2024-03-22T00:43:41;99717.47;;;6.74;100.00
57114;BME280;42994;51.606;9.988;2024-03-22T00:46:07;99711.59;;;6.71;100.00
57114;BME280;42994;51.606;9.988;2024-03-22T00:48:34;99702.25;;;6.67;100.00
57114;BME280;42994;51.606;9.988;2024-03-22T00:51:00;99705.16;;;6.73;100.00
57114;BME280;42994;51.606;9.988;2024-03-22T00:53:29;99704.97;;;6.75;100.00
57114;BME280;42994;51.606;9.988;2024-03-22T00:55:55;99706.81;;;6.74;100.00
57114;BME280;42994;51.606;9.988;2024-03-22T00:58:25;99693.97;;;6.70;100.00
57114;BME280;42994;51.606;9.988;2024-03-22T01:00:51;99704.84;;;6.77;100.00
57114;BME280;42994;51.606;9.988;2024-03-22T01:03:17;99698.22;;;6.81;100.00
57114;BME280;42994;51.606;9.988;2024-03-22T01:05:43;99688.84;;;6.77;100.00
57114;BME280;42994;51.606;9.988;2024-03-22T01:08:10;99689.69;;;6.77;100.00
57114;BME280;42994;51.606;9.988;2024-03-22T01:10:37;99687.19;;;6.76;100.00
57114;BME280;42994;51.606;9.988;2024-03-22T01:13:04;99685.06;;;6.79;100.00
57114;BME280;42994;51.606;9.988;2024-03-22T01:15:30;99689.69;;;6.77;100.00
57114;BME280;42994;51.606;9.988;2024-03-22T01:17:57;99685.59;;;6.83;100.00
57114;BME280;42994;51.606;9.988;2024-03-22T01:20:23;99688.25;;;6.83;100.00
57114;BME280;42994;51.606;9.988;2024-03-22T01:22:50;99675.91;;;6.82;100.00
57114;BME280;42994;51.606;9.988;2024-03-22T01:25:16;99677.91;;;6.80;100.00
57114;BME280;42994;51.606;9.988;2024-03-22T01:27:44;99675.66;;;6.75;100.00
57114;BME280;42994;51.606;9.988;2024-03-22T01:30:10;99677.22;;;6.78;100.00
57114;BME280;42994;51.606;9.988;2024-03-22T01:32:37;99673.31;;;6.72;100.00
57114;BME280;42994;51.606;9.988;2024-03-22T01:35:03;99678.88;;;6.79;100.00
57114;BME280;42994;51.606;9.988;2024-03-22T01:37:30;99682.97;;;6.73;100.00
57114;BME280;42994;51.606;9.988;2024-03-22T01:39:56;99681.59;;;6.69;100.00
57114;BME280;42994;51.606;9.988;2024-03-22T01:42:23;99665.47;;;6.70;100.00
57114;BME280;42994;51.606;9.988;2024-03-22T01:44:50;99666.59;;;6.68;100.00
57114;BME280;42994;51.606;9.988;2024-03-22T01:47:17;99671.09;;;6.67;100.00
57114;BME280;42994;51.606;9.988;2024-03-22T01:49:43;99675.75;;;6.65;100.00
57114;BME280;42994;51.606;9.988;2024-03-22T01:52:10;99670.28;;;6.67;100.00
57114;BME280;42994;51.606;9.988;2024-03-22T01:54:36;99672.09;;;6.66;100.00
57114;BME280;42994;51.606;9.988;2024-03-22T01:57:03;99668.97;;;6.71;100.00
57114;BME280;42994;51.606;9.988;2024-03-22T01:59:30;99672.78;;;6.68;100.00
57114;BME280;42994;51.606;9.988;2024-03-22T02:01:59;99668.69;;;6.74;100.00
57114;BME280;42994;51.606;9.988;2024-03-22T02:04:25;99655.13;;;6.67;100.00
57114;BME280;42994;51.606;9.988;2024-03-22T02:06:51;99646.28;;;6.67;100.00
57114;BME280;42994;51.606;9.988;2024-03-22T02:09:17;99643.78;;;6.65;100.00
57114;BME280;42994;51.606;9.988;2024-03-22T02:11:46;99646.00;;;6.70;100.00
57114;BME280;42994;51.606;9.988;2024-03-22T02:14:12;99642.19;;;6.72;100.00
57114;BME280;42994;51.606;9.988;2024-03-22T02:16:39;99629.69;;;6.73;100.00
57114;BME280;42994;51.606;9.988;2024-03-22T02:19:07;99628.88;;;6.72;100.00
57114;BME280;42994;51.606;9.988;2024-03-22T02:21:34;99618.75;;;6.76;100.00
57114;BME280;42994;51.606;9.988;2024-03-22T02:24:01;99616.22;;;6.74;100.00
57114;BME280;42994;51.606;9.988;2024-03-22T02:26:28;99617.72;;;6.77;100.00
57114;BME280;42994;51.606;9.988;2024-03-22T02:28:53;99624.59;;;6.80;100.00
57114;BME280;42994;51.606;9.988;2024-03-22T02:31:20;99627.13;;;6.81;100.00
57114;BME280;42994;51.606;9.988;2024-03-22T02:33:46;99630.06;;;6.78;100.00
57114;BME280;42994;51.606;9.988;2024-03-22T02:36:13;99631.28;;;6.84;100.00
57114;BME280;42994;51.606;9.988;2024-03-22T02:38:38;99626.78;;;6.84;100.00
57114;BME280;42994;51.606;9.988;2024-03-22T02:41:07;99630.75;;;6.80;100.00
57114;BME280;42994;51.606;9.988;2024-03-22T02:43:32;99617.91;;;6.76;100.00
57114;BME280;42994;51.606;9.988;2024-03-22T02:45:59;99621.25;;;6.78;100.00
57114;BME280;42994;51.606;9.988;2024-03-22T02:48:25;99611.03;;;6.73;100.00
57114;BME280;42994;51.606;9.988;2024-03-22T02:50:55;99623.06;;;6.77;100.00
57114;BME280;42994;51.606;9.988;2024-03-22T02:53:21;99615.94;;;6.78;100.00
57114;BME280;42994;51.606;9.988;2024-03-22T02:55:48;99612.59;;;6.76;100.00
57114;BME280;42994;51.606;9.988;2024-03-22T02:58:16;99611.66;;;6.85;100.00
57114;BME280;42994;51.606;9.988;2024-03-22T03:00:43;99614.34;;;6.85;100.00
57114;BME280;42994;51.606;9.988;2024-03-22T03:03:09;99598.63;;;6.82;100.00
57114;BME280;42994;51.606;9.988;2024-03-22T03:05:36;99587.00;;;6.83;100.00
57114;BME280;42994;51.606;9.988;2024-03-22T03:08:02;99583.63;;;6.81;100.00
57114;BME280;42994;51.606;9.988;2024-03-22T03:10:29;99561.34;;;6.82;100.00
57114;BME280;42994;51.606;9.988;2024-03-22T03:12:55;99558.66;;;6.82;100.00
57114;BME280;42994;51.606;9.988;2024-03-22T03:15:23;99563.16;;;6.81;100.00
57114;BME280;42994;51.606;9.988;2024-03-22T03:17:49;99554.53;;;6.87;100.00
57114;BME280;42994;51.606;9.988;2024-03-22T03:20:17;99555.38;;;6.88;100.00
57114;BME280;42994;51.606;9.988;2024-03-22T03:22:42;99553.25;;;6.91;100.00
57114;BME280;42994;51.606;9.988;2024-03-22T03:25:09;99542.75;;;6.90;100.00
57114;BME280;42994;51.606;9.988;2024-03-22T03:27:35;99549.06;;;6.89;100.00
57114;BME280;42994;51.606;9.988;2024-03-22T03:30:02;99551.44;;;6.92;100.00
57114;BME280;42994;51.606;9.988;2024-03-22T03:32:30;99553.25;;;6.91;100.00
57114;BME280;42994;51.606;9.988;2024-03-22T03:34:56;99556.91;;;6.90;100.00
57114;BME280;42994;51.606;9.988;2024-03-22T03:37:22;99550.22;;;6.86;100.00
57114;BME280;42994;51.606;9.988;2024-03-22T03:39:49;99545.72;;;6.87;100.00
57114;BME280;42994;51.606;9.988;2024-03-22T03:42:15;99536.53;;;6.81;100.00
57114;BME280;42994;51.606;9.988;2024-03-22T03:44:41;99545.72;;;6.87;100.00
57114;BME280;42994;51.606;9.988;2024-03-22T03:47:07;99542.91;;;6.88;100.00
57114;BME280;42994;51.606;9.988;2024-03-22T03:49:36;99544.38;;;6.83;100.00
57114;BME280;42994;51.606;9.988;2024-03-22T03:52:02;99534.00;;;6.80;100.00
57114;BME280;42994;51.606;9.988;2024-03-22T03:54:28;99531.19;;;6.81;100.00
57114;BME280;42994;51.606;9.988;2024-03-22T03:56:54;99523.06;;;6.83;100.00
57114;BME280;42994;51.606;9.988;2024-03-22T03:59:21;99532.69;;;6.84;100.00
57114;BME280;42994;51.606;9.988;2024-03-22T04:01:47;99526.69;;;6.82;100.00
57114;BME280;42994;51.606;9.988;2024-03-22T04:04:14;99526.69;;;6.82;100.00
57114;BME280;42994;51.606;9.988;2024-03-22T04:06:41;99532.69;;;6.84;100.00
57114;BME280;42994;51.606;9.988;2024-03-22T04:09:10;99531.72;;;6.85;100.00
57114;BME280;42994;51.606;9.988;2024-03-22T04:11:37;99533.38;;;6.86;100.00
57114;BME280;42994;51.606;9.988;2024-03-22T04:14:03;99524.41;;;6.87;100.00
57114;BME280;42994;51.606;9.988;2024-03-22T04:16:30;99525.72;;;6.83;100.00
57114;BME280;42994;51.606;9.988;2024-03-22T04:18:56;99524.72;;;6.84;100.00
57114;BME280;42994;51.606;9.988;2024-03-22T04:21:23;99532.03;;;6.82;100.00
57114;BME280;42994;51.606;9.988;2024-03-22T04:23:50;99540.66;;;6.76;100.00
57114;BME280;42994;51.606;9.988;2024-03-22T04:26:17;99546.13;;;6.74;100.00
57114;BME280;42994;51.606;9.988;2024-03-22T04:28:43;99549.75;;;6.73;100.00
57114;BME280;42994;51.606;9.988;2024-03-22T04:31:09;99541.63;;;6.74;100.00
57114;BME280;42994;51.606;9.988;2024-03-22T04:33:36;99550.63;;;6.73;100.00
57114;BME280;42994;51.606;9.988;2024-03-22T04:36:04;99552.97;;;6.77;100.00
57114;BME280;42994;51.606;9.988;2024-03-22T04:38:30;99566.81;;;6.80;100.00
57114;BME280;42994;51.606;9.988;2024-03-22T04:40:58;99559.50;;;6.82;100.00
57114;BME280;42994;51.606;9.988;2024-03-22T04:43:27;99560.19;;;6.84;100.00
57114;BME280;42994;51.606;9.988;2024-03-22T04:45:54;99563.03;;;6.83;100.00
57114;BME280;42994;51.606;9.988;2024-03-22T04:48:22;99563.56;;;6.86;100.00
57114;BME280;42994;51.606;9.988;2024-03-22T04:50:48;99555.03;;;6.83;100.00
57114;BME280;42994;51.606;9.988;2024-03-22T04:53:15;99559.34;;;6.84;100.00
57114;BME280;42994;51.606;9.988;2024-03-22T04:55:42;99553.88;;;6.85;100.00
57114;BME280;42994;51.606;9.988;2024-03-22T04:58:13;99562.00;;;6.84;100.00
57114;BME280;42994;51.606;9.988;2024-03-22T05:00:39;99560.50;;;6.81;100.00
57114;BME280;42994;51.606;9.988;2024-03-22T05:03:06;99559.97;;;6.78;100.00
57114;BME280;42994;51.606;9.988;2024-03-22T05:05:32;99550.00;;;6.80;100.00
57114;BME280;42994;51.606;9.988;2024-03-22T05:07:59;99544.66;;;6.80;100.00
57114;BME280;42994;51.606;9.988;2024-03-22T05:10:24;99551.84;;;6.79;100.00
57114;BME280;42994;51.606;9.988;2024-03-22T05:12:51;99559.13;;;6.77;100.00
57114;BME280;42994;51.606;9.988;2024-03-22T05:15:18;99541.47;;;6.76;100.00
57114;BME280;42994;51.606;9.988;2024-03-22T05:17:46;99556.63;;;6.76;100.00
57114;BME280;42994;51.606;9.988;2024-03-22T05:20:12;99560.28;;;6.74;100.00
57114;BME280;42994;51.606;9.988;2024-03-22T05:22:39;99559.13;;;6.77;100.00
57114;BME280;42994;51.606;9.988;2024-03-22T05:25:05;99544.38;;;6.83;100.00
57114;BME280;42994;51.606;9.988;2024-03-22T05:27:33;99540.41;;;6.87;100.00
57114;BME280;42994;51.606;9.988;2024-03-22T05:29:59;99538.41;;;6.89;100.00
57114;BME280;42994;51.606;9.988;2024-03-22T05:32:27;99534.59;;;6.91;100.00
57114;BME280;42994;51.606;9.988;2024-03-22T05:34:53;99531.47;;;6.96;100.00
57114;BME280;42994;51.606;9.988;2024-03-22T05:37:20;99540.66;;;7.02;100.00
57114;BME280;42994;51.606;9.988;2024-03-22T05:39:46;99537.06;;;7.11;100.00
57114;BME280;42994;51.606;9.988;2024-03-22T05:42:13;99532.25;;;7.15;100.00
57114;BME280;42994;51.606;9.988;2024-03-22T05:44:39;99527.28;;;7.20;100.00
57114;BME280;42994;51.606;9.988;2024-03-22T05:47:06;99521.31;;;7.26;100.00
57114;BME280;42994;51.606;9.988;2024-03-22T05:49:33;99508.72;;;7.36;100.00
57114;BME280;42994;51.606;9.988;2024-03-22T05:52:00;99508.22;;;7.41;100.00
57114;BME280;42994;51.606;9.988;2024-03-22T05:54:26;99504.28;;;7.45;100.00
57114;BME280;42994;51.606;9.988;2024-03-22T05:56:53;99507.09;;;7.43;100.00
57114;BME280;42994;51.606;9.988;2024-03-22T05:59:18;99500.44;;;7.47;100.00
57114;BME280;42994;51.606;9.988;2024-03-22T06:01:45;99493.63;;;7.53;100.00
57114;BME280;42994;51.606;9.988;2024-03-22T06:04:11;99489.97;;;7.54;100.00
57114;BME280;42994;51.606;9.988;2024-03-22T06:06:39;99483.78;;;7.54;100.00
57114;BME280;42994;51.606;9.988;2024-03-22T06:09:05;99482.13;;;7.53;100.00
57114;BME280;42994;51.606;9.988;2024-03-22T06:11:36;99485.78;;;7.51;100.00
57114;BME280;42994;51.606;9.988;2024-03-22T06:14:02;99489.78;;;7.47;100.00
57114;BME280;42994;51.606;9.988;2024-03-22T06:16:29;99486.78;;;7.50;100.00
57114;BME280;42994;51.606;9.988;2024-03-22T06:18:55;99476.63;;;7.54;100.00
57114;BME280;42994;51.606;9.988;2024-03-22T06:21:22;99478.63;;;7.52;100.00
57114;BME280;42994;51.606;9.988;2024-03-22T06:23:52;99484.63;;;7.54;100.00
57114;BME280;42994;51.606;9.988;2024-03-22T06:26:18;99487.47;;;7.53;100.00
57114;BME280;42994;51.606;9.988;2024-03-22T06:28:44;99487.16;;;7.56;100.00
57114;BME280;42994;51.606;9.988;2024-03-22T06:31:12;99488.50;;;7.60;100.00
57114;BME280;42994;51.606;9.988;2024-03-22T06:33:38;99490.00;;;7.62;100.00
57114;BME280;42994;51.606;9.988;2024-03-22T06:36:05;99486.50;;;7.62;100.00
57114;BME280;42994;51.606;9.988;2024-03-22T06:38:31;99485.16;;;7.66;100.00
57114;BME280;42994;51.606;9.988;2024-03-22T06:40:59;99479.53;;;7.69;100.00
57114;BME280;42994;51.606;9.988;2024-03-22T06:43:25;99475.69;;;7.72;100.00
57114;BME280;42994;51.606;9.988;2024-03-22T06:45:52;99479.53;;;7.77;100.00
57114;BME280;42994;51.606;9.988;2024-03-22T06:48:18;99473.56;;;7.83;100.00
57114;BME280;42994;51.606;9.988;2024-03-22T06:50:45;99473.72;;;7.90;100.00
57114;BME280;42994;51.606;9.988;2024-03-22T06:53:11;99464.75;;;7.91;100.00
57114;BME280;42994;51.606;9.988;2024-03-22T06:55:38;99460.22;;;7.92;100.00
57114;BME280;42994;51.606;9.988;2024-03-22T06:58:05;99461.91;;;7.93;100.00
57114;BME280;42994;51.606;9.988;2024-03-22T07:00:32;99458.88;;;7.96;100.00
57114;BME280;42994;51.606;9.988;2024-03-22T07:03:00;99434.22;;;8.02;100.00
57114;BME280;42994;51.606;9.988;2024-03-22T07:05:29;99438.75;;;8.09;100.00
57114;BME280;42994;51.606;9.988;2024-03-22T07:07:55;99430.06;;;8.16;100.00
57114;BME280;42994;51.606;9.988;2024-03-22T07:10:23;99427.88;;;8.19;100.00
57114;BME280;42994;51.606;9.988;2024-03-22T07:12:53;99426.22;;;8.18;100.00
57114;BME280;42994;51.606;9.988;2024-03-22T07:15:23;99424.56;;;8.25;100.00
57114;BME280;42994;51.606;9.988;2024-03-22T07:17:49;99431.91;;;8.32;100.00
57114;BME280;42994;51.606;9.988;2024-03-22T07:20:16;99425.56;;;8.33;100.00
57114;BME280;42994;51.606;9.988;2024-03-22T07:22:42;99426.91;;;8.45;100.00
57114;BME280;42994;51.606;9.988;2024-03-22T07:25:09;99425.25;;;8.52;100.00
57114;BME280;42994;51.606;9.988;2024-03-22T07:27:35;99418.75;;;8.55;100.00
57114;BME280;42994;51.606;9.988;2024-03-22T07:30:02;99407.91;;;8.56;100.00
57114;BME280;42994;51.606;9.988;2024-03-22T07:32:29;99403.72;;;8.62;100.00
57114;BME280;42994;51.606;9.988;2024-03-22T07:34:56;99403.84;;;8.69;100.00
57114;BME280;42994;51.606;9.988;2024-03-22T07:37:22;99396.53;;;8.71;100.00
57114;BME280;42994;51.606;9.988;2024-03-22T07:39:49;99406.84;;;8.82;100.00
57114;BME280;42994;51.606;9.988;2024-03-22T07:42:14;99396.81;;;8.84;100.00
57114;BME280;42994;51.606;9.988;2024-03-22T07:44:41;99397.44;;;8.94;100.00
57114;BME280;42994;51.606;9.988;2024-03-22T07:47:07;99393.28;;;9.00;100.00
57114;BME280;42994;51.606;9.988;2024-03-22T07:49:35;99392.09;;;9.02;100.00
57114;BME280;42994;51.606;9.988;2024-03-22T07:52:02;99384.50;;;9.14;100.00
57114;BME280;42994;51.606;9.988;2024-03-22T07:54:29;99373.63;;;9.16;100.00
57114;BME280;42994;51.606;9.988;2024-03-22T07:56:55;99372.97;;;9.22;100.00
57114;BME280;42994;51.606;9.988;2024-03-22T07:59:22;99360.56;;;9.29;100.00
57114;BME280;42994;51.606;9.988;2024-03-22T08:01:47;99367.03;;;9.35;100.00
57114;BME280;42994;51.606;9.988;2024-03-22T08:04:14;99357.47;;;9.40;100.00
57114;BME280;42994;51.606;9.988;2024-03-22T08:06:41;99348.09;;;9.45;100.00
57114;BME280;42994;51.606;9.988;2024-03-22T08:09:08;99344.69;;;9.51;100.00
57114;BME280;42994;51.606;9.988;2024-03-22T08:11:34;99338.97;;;9.62;100.00
57114;BME280;42994;51.606;9.988;2024-03-22T08:14:01;99342.94;;;9.66;100.00
57114;BME280;42994;51.606;9.988;2024-03-22T08:16:28;99330.72;;;9.63;100.00
57114;BME280;42994;51.606;9.988;2024-03-22T08:18:55;99317.81;;;9.67;100.00
57114;BME280;42994;51.606;9.988;2024-03-22T08:21:22;99321.06;;;9.62;100.00
57114;BME280;42994;51.606;9.988;2024-03-22T08:23:50;99318.03;;;9.66;100.00
57114;BME280;42994;51.606;9.988;2024-03-22T08:26:16;99308.31;;;9.65;100.00
57114;BME280;42994;51.606;9.988;2024-03-22T08:28:43;99299.09;;;9.67;100.00
57114;BME280;42994;51.606;9.988;2024-03-22T08:31:09;99303.44;;;9.68;100.00
57114;BME280;42994;51.606;9.988;2024-03-22T08:33:36;99296.41;;;9.67;100.00
57114;BME280;42994;51.606;9.988;2024-03-22T08:36:02;99293.03;;;9.73;100.00
57114;BME280;42994;51.606;9.988;2024-03-22T08:38:29;99292.78;;;9.83;100.00
57114;BME280;42994;51.606;9.988;2024-03-22T08:40:56;99291.97;;;9.82;100.00
57114;BME280;42994;51.606;9.988;2024-03-22T08:43:23;99270.47;;;9.91;100.00
57114;BME280;42994;51.606;9.988;2024-03-22T08:45:51;99264.09;;;9.92;100.00
57114;BME280;42994;51.606;9.988;2024-03-22T08:48:18;99268.41;;;9.93;100.00
57114;BME280;42994;51.606;9.988;2024-03-22T08:50:44;99264.94;;;10.07;100.00
57114;BME280;42994;51.606;9.988;2024-03-22T08:53:11;99256.03;;;10.15;100.00
57114;BME280;42994;51.606;9.988;2024-03-22T08:55:36;99256.50;;;10.18;100.00
57114;BME280;42994;51.606;9.988;2024-03-22T08:58:05;99248.88;;;10.22;100.00
57114;BME280;42994;51.606;9.988;2024-03-22T09:00:30;99240.69;;;10.24;100.00
57114;BME280;42994;51.606;9.988;2024-03-22T09:02:57;99238.09;;;10.30;100.00
57114;BME280;42994;51.606;9.988;2024-03-22T09:05:23;99235.44;;;10.30;100.00
57114;BME280;42994;51.606;9.988;2024-03-22T09:07:50;99234.06;;;10.34;100.00
57114;BME280;42994;51.606;9.988;2024-03-22T09:10:18;99233.06;;;10.35;100.00
57114;BME280;42994;51.606;9.988;2024-03-22T09:12:45;99226.88;;;10.35;100.00
57114;BME280;42994;51.606;9.988;2024-03-22T09:15:12;99219.09;;;10.40;100.00
57114;BME280;42994;51.606;9.988;2024-03-22T09:17:39;99214.84;;;10.46;100.00
57114;BME280;42994;51.606;9.988;2024-03-22T09:20:06;99213.00;;;10.46;100.00
57114;BME280;42994;51.606;9.988;2024-03-22T09:22:33;99205.44;;;10.50;100.00
57114;BME280;42994;51.606;9.988;2024-03-22T09:24:59;99199.50;;;10.54;100.00
57114;BME280;42994;51.606;9.988;2024-03-22T09:27:25;99204.13;;;10.61;100.00
57114;BME280;42994;51.606;9.988;2024-03-22T09:29:51;99198.19;;;10.65;100.00
57114;BME280;42994;51.606;9.988;2024-03-22T09:32:20;99191.63;;;10.68;100.00
57114;BME280;42994;51.606;9.988;2024-03-22T09:34:48;99191.25;;;10.71;100.00
57114;BME280;42994;51.606;9.988;2024-03-22T09:37:15;99184.69;;;10.73;100.00
57114;BME280;42994;51.606;9.988;2024-03-22T09:39:41;99182.66;;;10.75;100.00
57114;BME280;42994;51.606;9.988;2024-03-22T09:42:08;99184.38;;;10.83;100.00
57114;BME280;42994;51.606;9.988;2024-03-22T09:44:37;99174.47;;;10.84;100.00
57114;BME280;42994;51.606;9.988;2024-03-22T09:47:08;99177.56;;;10.81;100.00
57114;BME280;42994;51.606;9.988;2024-03-22T09:49:36;99177.06;;;10.92;100.00
57114;BME280;42994;51.606;9.988;2024-03-22T09:52:04;99166.13;;;10.93;100.00
57114;BME280;42994;51.606;9.988;2024-03-22T09:54:30;99164.09;;;10.95;100.00
57114;BME280;42994;51.606;9.988;2024-03-22T09:56:57;99167.91;;;11.08;100.00
57114;BME280;42994;51.606;9.988;2024-03-22T09:59:24;99157.84;;;11.10;100.00
57114;BME280;42994;51.606;9.988;2024-03-22T10:01:52;99162.06;;;11.19;100.00
57114;BME280;42994;51.606;9.988;2024-03-22T10:04:18;99160.66;;;11.23;100.00
57114;BME280;42994;51.606;9.988;2024-03-22T10:06:47;99147.31;;;11.30;100.00
57114;BME280;42994;51.606;9.988;2024-03-22T10:09:13;99146.59;;;11.21;100.00
57114;BME280;42994;51.606;9.988;2024-03-22T10:11:40;99139.97;;;11.17;100.00
57114;BME280;42994;51.606;9.988;2024-03-22T10:14:05;99140.81;;;11.24;100.00
57114;BME280;42994;51.606;9.988;2024-03-22T10:16:34;99124.59;;;11.32;100.00
57114;BME280;42994;51.606;9.988;2024-03-22T10:19:00;99136.03;;;11.41;100.00
57114;BME280;42994;51.606;9.988;2024-03-22T10:21:27;99123.00;;;11.38;100.00
57114;BME280;42994;51.606;9.988;2024-03-22T10:23:55;99121.38;;;11.44;100.00
57114;BME280;42994;51.606;9.988;2024-03-22T10:26:22;99124.56;;;11.54;100.00
57114;BME280;42994;51.606;9.988;2024-03-22T10:28:48;99119.72;;;11.71;100.00
57114;BME280;42994;51.606;9.988;2024-03-22T10:31:15;99110.78;;;11.64;100.00
57114;BME280;42994;51.606;9.988;2024-03-22T10:33:41;99112.34;;;11.80;100.00
57114;BME280;42994;51.606;9.988;2024-03-22T10:36:09;99111.31;;;11.81;100.00
57114;BME280;42994;51.606;9.988;2024-03-22T10:38:36;99098.84;;;11.66;100.00
57114;BME280;42994;51.606;9.988;2024-03-22T10:41:06;99092.25;;;11.69;100.00
57114;BME280;42994;51.606;9.988;2024-03-22T10:43:32;99088.13;;;11.73;100.00
57114;BME280;42994;51.606;9.988;2024-03-22T10:46:01;99092.69;;;11.72;100.00
57114;BME280;42994;51.606;9.988;2024-03-22T10:48:30;99079.50;;;11.78;100.00
57114;BME280;42994;51.606;9.988;2024-03-22T10:51:00;99086.69;;;11.77;100.00
57114;BME280;42994;51.606;9.988;2024-03-22T10:53:30;99078.06;;;11.82;100.00
57114;BME280;42994;51.606;9.988;2024-03-22T10:55:59;99087.13;;;11.81;100.00
57114;BME280;42994;51.606;9.988;2024-03-22T10:58:28;99077.81;;;11.77;100.00
57114;BME280;42994;51.606;9.988;2024-03-22T11:00:56;99073.56;;;11.89;100.00
57114;BME280;42994;51.606;9.988;2024-03-22T11:03:22;99068.84;;;11.91;100.00
57114;BME280;42994;51.606;9.988;2024-03-22T11:05:50;99060.59;;;11.92;100.00
57114;BME280;42994;51.606;9.988;2024-03-22T11:08:24;99061.03;;;12.03;100.00
57114;BME280;42994;51.606;9.988;2024-03-22T11:10:51;99052.38;;;12.07;100.00
57114;BME280;42994;51.606;9.988;2024-03-22T11:13:17;99042.47;;;12.08;100.00
57114;BME280;42994;51.606;9.988;2024-03-22T11:15:48;99037.28;;;12.06;100.00
57114;BME280;42994;51.606;9.988;2024-03-22T11:18:14;99038.38;;;12.12;100.00
57114;BME280;42994;51.606;9.988;2024-03-22T11:20:42;99035.25;;;12.15;100.00
57114;BME280;42994;51.606;9.988;2024-03-22T11:23:08;99023.88;;;12.13;100.00
57114;BME280;42994;51.606;9.988;2024-03-22T11:25:36;99028.03;;;12.16;100.00
57114;BME280;42994;51.606;9.988;2024-03-22T11:28:02;99014.38;;;12.17;100.00
57114;BME280;42994;51.606;9.988;2024-03-22T11:30:29;99017.72;;;12.26;100.00
57114;BME280;42994;51.606;9.988;2024-03-22T11:32:57;99003.66;;;12.24;100.00
57114;BME280;42994;51.606;9.988;2024-03-22T11:35:24;99016.72;;;12.34;100.00
57114;BME280;42994;51.606;9.988;2024-03-22T11:37:50;99013.00;;;12.35;100.00
57114;BME280;42994;51.606;9.988;2024-03-22T11:40:17;99001.84;;;12.38;100.00
57114;BME280;42994;51.606;9.988;2024-03-22T11:42:46;98996.47;;;12.44;100.00
57114;BME280;42994;51.606;9.988;2024-03-22T11:45:14;98992.38;;;12.48;100.00
57114;BME280;42994;51.606;9.988;2024-03-22T11:47:41;98991.34;;;12.56;100.00
57114;BME280;42994;51.606;9.988;2024-03-22T11:50:11;98981.41;;;12.57;100.00
57114;BME280;42994;51.606;9.988;2024-03-22T11:52:40;98979.31;;;12.59;100.00
57114;BME280;42994;51.606;9.988;2024-03-22T11:55:07;98977.28;;;12.67;100.00
57114;BME280;42994;51.606;9.988;2024-03-22T11:57:33;98971.88;;;12.61;100.00
57114;BME280;42994;51.606;9.988;2024-03-22T12:00:00;98970.03;;;12.75;100.00
57114;BME280;42994;51.606;9.988;2024-03-22T12:02:27;98955.34;;;12.77;100.00
57114;BME280;42994;51.606;9.988;2024-03-22T12:04:54;98954.50;;;12.90;100.00
57114;BME280;42994;51.606;9.988;2024-03-22T12:07:21;98941.66;;;12.99;100.00
57114;BME280;42994;51.606;9.988;2024-03-22T12:09:48;98941.06;;;13.03;100.00
57114;BME280;42994;51.606;9.988;2024-03-22T12:12:14;98945.78;;;13.15;100.00
57114;BME280;42994;51.606;9.988;2024-03-22T12:14:41;98934.22;;;13.07;100.00
57114;BME280;42994;51.606;9.988;2024-03-22T12:17:07;98939.34;;;13.22;100.00
57114;BME280;42994;51.606;9.988;2024-03-22T12:19:34;98914.25;;;13.28;100.00
57114;BME280;42994;51.606;9.988;2024-03-22T12:22:00;98908.50;;;13.38;100.00
57114;BME280;42994;51.606;9.988;2024-03-22T12:24:28;98896.66;;;13.46;100.00
57114;BME280;42994;51.606;9.988;2024-03-22T12:26:54;98896.47;;;13.41;100.00
57114;BME280;42994;51.606;9.988;2024-03-22T12:29:21;98892.53;;;13.37;100.00
57114;BME280;42994;51.606;9.988;2024-03-22T12:31:47;98897.06;;;13.50;100.00
57114;BME280;42994;51.606;9.988;2024-03-22T12:34:14;98886.41;;;13.61;100.00
57114;BME280;42994;51.606;9.988;2024-03-22T12:36:40;98879.81;;;13.57;100.00
57114;BME280;42994;51.606;9.988;2024-03-22T12:39:07;98882.69;;;13.62;100.00
57114;BME280;42994;51.606;9.988;2024-03-22T12:41:34;98878.09;;;13.70;100.00
57114;BME280;42994;51.606;9.988;2024-03-22T12:44:01;98868.13;;;13.77;100.00
57114;BME280;42994;51.606;9.988;2024-03-22T12:46:27;98871.56;;;13.91;100.00
57114;BME280;42994;51.606;9.988;2024-03-22T12:48:54;98860.03;;;13.77;100.00
57114;BME280;42994;51.606;9.988;2024-03-22T12:51:20;98856.06;;;13.86;100.00
57114;BME280;42994;51.606;9.988;2024-03-22T12:53:47;98862.44;;;13.92;100.00
57114;BME280;42994;51.606;9.988;2024-03-22T12:56:13;98852.03;;;14.02;100.00